sensor_id;sensor_type;location;lat;lon;timestamp;temperature;humidity
11242;DHT22;5678;52.370;9.006;2023-08-17T12:29:27;16.90;44.40
11242;DHT22;5678;52.370;9.006;2023-08-17T12:31:57;17.20;69.00
11242;DHT22;5678;52.370;9.006;2023-08-17T12:34:25;17.30;37.50
11242;DHT22;5678;52.370;9.006;2023-08-17T12:36:53;17.20;43.60
11242;DHT22;5678;52.370;9.006;2023-08-17T12:39:21;17.90;26.10
11242;DHT22;5678;52.370;9.006;2023-08-17T12:41:49;17.70;1.00
11242;DHT22;5678;52.370;9.006;2023-08-17T12:44:16;17.80;1.00
11242;DHT22;5678;52.370;9.006;2023-08-17T12:46:46;17.70;1.00
11242;DHT22;5678;52.370;9.006;2023-08-17T12:49:14;18.10;1.00
11242;DHT22;5678;52.370;9.006;2023-08-17T12:51:42;17.50;1.00
11242;DHT22;5678;52.370;9.006;2023-08-17T12:54:12;19.30;1.00
11242;DHT22;5678;52.370;9.006;2023-08-17T12:56:40;17.60;1.00
11242;DHT22;5678;52.370;9.006;2023-08-17T12:59:08;18.00;1.00
11242;DHT22;5678;52.370;9.006;2023-08-17T13:01:36;17.20;1.00
11242;DHT22;5678;52.370;9.006;2023-08-17T13:04:05;18.00;1.00
11242;DHT22;5678;52.370;9.006;2023-08-17T13:06:33;17.50;1.00
11242;DHT22;5678;52.370;9.006;2023-08-17T13:09:15;18.00;1.00
11242;DHT22;5678;52.370;9.006;2023-08-17T13:11:44;18.00;1.00
11242;DHT22;5678;52.370;9.006;2023-08-17T13:14:14;18.10;1.00
11242;DHT22;5678;52.370;9.006;2023-08-17T13:16:42;18.10;1.00
11242;DHT22;5678;52.370;9.006;2023-08-17T13:19:11;17.60;1.00
11242;DHT22;5678;52.370;9.006;2023-08-17T13:21:39;17.50;1.00
11242;DHT22;5678;52.370;9.006;2023-08-17T13:24:07;17.90;1.00
11242;DHT22;5678;52.370;9.006;2023-08-17T13:26:35;17.20;1.00
11242;DHT22;5678;52.370;9.006;2023-08-17T13:29:04;17.80;1.00
11242;DHT22;5678;52.370;9.006;2023-08-17T13:31:32;17.30;1.00
11242;DHT22;5678;52.370;9.006;2023-08-17T13:33:59;17.60;1.00
11242;DHT22;5678;52.370;9.006;2023-08-17T13:36:29;17.90;1.00
11242;DHT22;5678;52.370;9.006;2023-08-17T13:38:57;17.80;1.00
11242;DHT22;5678;52.370;9.006;2023-08-17T13:41:25;17.40;1.00
11242;DHT22;5678;52.370;9.006;2023-08-17T13:43:53;18.30;1.00
11242;DHT22;5678;52.370;9.006;2023-08-17T13:46:25;18.30;1.00
11242;DHT22;5678;52.370;9.006;2023-08-17T13:48:53;17.80;1.00
11242;DHT22;5678;52.370;9.006;2023-08-17T13:51:21;19.00;1.00
11242;DHT22;5678;52.370;9.006;2023-08-17T13:53:50;18.30;1.00
11242;DHT22;5678;52.370;9.006;2023-08-17T13:56:18;18.20;1.00
11242;DHT22;5678;52.370;9.006;2023-08-17T13:58:46;18.50;1.00
11242;DHT22;5678;52.370;9.006;2023-08-17T14:01:14;18.50;1.00
11242;DHT22;5678;52.370;9.006;2023-08-17T14:03:43;18.90;1.00
11242;DHT22;5678;52.370;9.006;2023-08-17T14:06:11;18.40;1.00
11242;DHT22;5678;52.370;9.006;2023-08-17T14:08:39;18.30;1.00
11242;DHT22;5678;52.370;9.006;2023-08-17T14:11:08;18.50;1.00
11242;DHT22;5678;52.370;9.006;2023-08-17T14:13:36;18.30;1.00
11242;DHT22;5678;52.370;9.006;2023-08-17T14:16:05;19.00;1.00
11242;DHT22;5678;52.370;9.006;2023-08-17T14:18:33;18.20;1.00
11242;DHT22;5678;52.370;9.006;2023-08-17T14:21:01;18.80;1.00
11242;DHT22;5678;52.370;9.006;2023-08-17T14:23:29;18.60;1.00
11242;DHT22;5678;52.370;9.006;2023-08-17T14:25:57;18.20;1.00
11242;DHT22;5678;52.370;9.006;2023-08-17T14:28:27;18.30;1.00
11242;DHT22;5678;52.370;9.006;2023-08-17T14:30:54;18.40;1.00
11242;DHT22;5678;52.370;9.006;2023-08-17T14:33:22;18.40;1.00
11242;DHT22;5678;52.370;9.006;2023-08-17T14:35:50;19.50;1.00
11242;DHT22;5678;52.370;9.006;2023-08-17T14:38:18;18.10;1.00
11242;DHT22;5678;52.370;9.006;2023-08-17T14:40:48;19.20;1.00
11242;DHT22;5678;52.370;9.006;2023-08-17T14:43:16;18.00;1.00
11242;DHT22;5678;52.370;9.006;2023-08-17T14:45:45;18.80;1.00
11242;DHT22;5678;52.370;9.006;2023-08-17T14:48:13;19.50;1.00
11242;DHT22;5678;52.370;9.006;2023-08-17T14:50:41;18.80;1.00
11242;DHT22;5678;52.370;9.006;2023-08-17T14:53:09;18.10;1.00
11242;DHT22;5678;52.370;9.006;2023-08-17T14:55:37;18.70;1.00
11242;DHT22;5678;52.370;9.006;2023-08-17T14:58:05;18.50;1.00
11242;DHT22;5678;52.370;9.006;2023-08-17T15:00:33;18.60;1.00
11242;DHT22;5678;52.370;9.006;2023-08-17T15:03:03;18.30;1.00
11242;DHT22;5678;52.370;9.006;2023-08-17T15:05:31;18.00;1.00
11242;DHT22;5678;52.370;9.006;2023-08-17T15:08:02;18.20;1.00
11242;DHT22;5678;52.370;9.006;2023-08-17T15:10:30;17.80;1.00
11242;DHT22;5678;52.370;9.006;2023-08-17T15:12:59;18.50;1.00
11242;DHT22;5678;52.370;9.006;2023-08-17T15:15:27;18.80;1.00
11242;DHT22;5678;52.370;9.006;2023-08-17T15:17:55;18.10;1.00
11242;DHT22;5678;52.370;9.006;2023-08-17T15:20:25;18.60;1.00
11242;DHT22;5678;52.370;9.006;2023-08-17T15:22:54;18.70;1.00
11242;DHT22;5678;52.370;9.006;2023-08-17T15:25:22;18.50;1.00
11242;DHT22;5678;52.370;9.006;2023-08-17T15:27:50;18.30;1.00
11242;DHT22;5678;52.370;9.006;2023-08-17T15:30:18;18.30;1.00
11242;DHT22;5678;52.370;9.006;2023-08-17T15:32:46;18.50;1.00
11242;DHT22;5678;52.370;9.006;2023-08-17T15:35:14;18.10;1.00
11242;DHT22;5678;52.370;9.006;2023-08-17T15:37:43;18.40;1.00
11242;DHT22;5678;52.370;9.006;2023-08-17T15:40:11;18.70;1.00
11242;DHT22;5678;52.370;9.006;2023-08-17T15:42:39;18.80;1.00
11242;DHT22;5678;52.370;9.006;2023-08-17T15:45:08;17.90;1.00
11242;DHT22;5678;52.370;9.006;2023-08-17T15:47:36;18.20;1.00
11242;DHT22;5678;52.370;9.006;2023-08-17T15:50:05;17.70;1.00
11242;DHT22;5678;52.370;9.006;2023-08-17T15:52:33;17.70;1.00
11242;DHT22;5678;52.370;9.006;2023-08-17T15:55:03;18.10;1.00
11242;DHT22;5678;52.370;9.006;2023-08-17T15:57:31;17.60;1.00
11242;DHT22;5678;52.370;9.006;2023-08-17T15:59:59;17.60;1.00
11242;DHT22;5678;52.370;9.006;2023-08-17T16:02:27;18.00;1.00
11242;DHT22;5678;52.370;9.006;2023-08-17T16:04:55;17.40;1.00
11242;DHT22;5678;52.370;9.006;2023-08-17T16:07:23;18.00;1.00
11242;DHT22;5678;52.370;9.006;2023-08-17T16:09:51;17.30;1.00
11242;DHT22;5678;52.370;9.006;2023-08-17T16:12:20;17.70;1.00
11242;DHT22;5678;52.370;9.006;2023-08-17T16:14:48;17.50;1.00
11242;DHT22;5678;52.370;9.006;2023-08-17T16:17:16;18.20;1.00
11242;DHT22;5678;52.370;9.006;2023-08-17T16:19:44;17.60;1.20
11242;DHT22;5678;52.370;9.006;2023-08-17T16:22:12;18.90;1.00
11242;DHT22;5678;52.370;9.006;2023-08-17T16:24:43;18.60;1.00
11242;DHT22;5678;52.370;9.006;2023-08-17T16:27:11;18.00;1.00
11242;DHT22;5678;52.370;9.006;2023-08-17T16:29:40;17.50;18.60
11242;DHT22;5678;52.370;9.006;2023-08-17T16:32:08;17.20;29.10
11242;DHT22;5678;52.370;9.006;2023-08-17T16:34:36;18.00;49.10
11242;DHT22;5678;52.370;9.006;2023-08-17T16:37:05;17.30;79.30
11242;DHT22;5678;52.370;9.006;2023-08-17T16:39:33;17.50;66.60
11242;DHT22;5678;52.370;9.006;2023-08-17T16:42:01;17.70;95.40
11242;DHT22;5678;52.370;9.006;2023-08-17T16:44:29;17.10;99.90
11242;DHT22;5678;52.370;9.006;2023-08-17T16:46:58;18.00;99.90
11242;DHT22;5678;52.370;9.006;2023-08-17T16:49:26;18.20;99.90
11242;DHT22;5678;52.370;9.006;2023-08-17T16:51:58;17.20;99.90
11242;DHT22;5678;52.370;9.006;2023-08-17T16:54:26;17.20;99.90
11242;DHT22;5678;52.370;9.006;2023-08-17T16:56:54;17.20;99.90
11242;DHT22;5678;52.370;9.006;2023-08-17T16:59:22;17.50;99.90
11242;DHT22;5678;52.370;9.006;2023-08-17T17:01:51;16.90;99.90
11242;DHT22;5678;52.370;9.006;2023-08-17T17:04:21;17.20;99.90
11242;DHT22;5678;52.370;9.006;2023-08-17T17:06:49;16.90;99.90
11242;DHT22;5678;52.370;9.006;2023-08-17T17:09:18;17.90;99.90
11242;DHT22;5678;52.370;9.006;2023-08-17T17:11:46;17.80;99.90
11242;DHT22;5678;52.370;9.006;2023-08-17T17:14:14;16.50;99.90
11242;DHT22;5678;52.370;9.006;2023-08-17T17:16:43;17.30;99.90
11242;DHT22;5678;52.370;9.006;2023-08-17T17:19:10;16.80;99.90
11242;DHT22;5678;52.370;9.006;2023-08-17T17:21:40;17.00;99.90
11242;DHT22;5678;52.370;9.006;2023-08-17T17:24:08;17.70;99.90
11242;DHT22;5678;52.370;9.006;2023-08-17T17:26:36;17.20;99.90
11242;DHT22;5678;52.370;9.006;2023-08-17T17:29:05;16.90;99.90
11242;DHT22;5678;52.370;9.006;2023-08-17T17:31:33;16.90;99.90
11242;DHT22;5678;52.370;9.006;2023-08-17T17:34:01;17.40;99.90
11242;DHT22;5678;52.370;9.006;2023-08-17T17:36:29;17.10;99.90
11242;DHT22;5678;52.370;9.006;2023-08-17T17:38:58;17.10;99.90
11242;DHT22;5678;52.370;9.006;2023-08-17T17:41:26;16.60;99.90
11242;DHT22;5678;52.370;9.006;2023-08-17T17:43:54;16.60;99.90
11242;DHT22;5678;52.370;9.006;2023-08-17T17:46:22;17.10;99.90
11242;DHT22;5678;52.370;9.006;2023-08-17T17:48:51;16.80;99.90
11242;DHT22;5678;52.370;9.006;2023-08-17T17:51:19;17.60;99.90
11242;DHT22;5678;52.370;9.006;2023-08-17T17:53:48;17.30;99.90
11242;DHT22;5678;52.370;9.006;2023-08-17T17:56:17;17.20;99.90
11242;DHT22;5678;52.370;9.006;2023-08-17T17:58:45;16.90;99.90
11242;DHT22;5678;52.370;9.006;2023-08-17T18:01:13;16.90;99.90
11242;DHT22;5678;52.370;9.006;2023-08-17T18:03:41;17.00;99.90
11242;DHT22;5678;52.370;9.006;2023-08-17T18:06:09;17.40;99.90
11242;DHT22;5678;52.370;9.006;2023-08-17T18:08:37;16.60;99.90
11242;DHT22;5678;52.370;9.006;2023-08-17T18:11:05;17.20;99.90
11242;DHT22;5678;52.370;9.006;2023-08-17T18:13:34;16.80;99.90
11242;DHT22;5678;52.370;9.006;2023-08-17T18:16:02;17.70;99.90
11242;DHT22;5678;52.370;9.006;2023-08-17T18:18:30;16.60;99.90
11242;DHT22;5678;52.370;9.006;2023-08-17T18:20:59;17.90;99.90
11242;DHT22;5678;52.370;9.006;2023-08-17T18:23:27;16.80;99.90
11242;DHT22;5678;52.370;9.006;2023-08-17T18:25:55;17.20;99.90
